Accueil
METAR-TAF:

METAR-TAF

Aéroports :

Helsinki, Finlande

Aéroport d'Helsinki-Vantaa

latitude: 60-19N, longitude: 024-58E, altitude: 51 m

Observation

Le bulletin a été fait il y a 10 minutes, à 12:50 UTC
Vent 14 kt de ouest
Température 10°C
Humidité 57%
Pression 1004 hPa
Visibilité 10 km ou plus
Quelques nuages à une hauteur de 2500 ft
Nuages épars à une hauteur de 20000 ft

METAR: EFHK 261250Z 26014KT 9999 FEW025 SCT200 10/02 Q1004 NOSIG

Heure: 16:00 (13:00 UTC)

Prévision

Le bulletin a été fait il y a 1 heure et 26 minutes, à 11:34 UTC
Prévision valable du 26 à 12 UTC au 27 à 12 UTC
Vent 14 kt de ouest
Visibilité 10 km ou plus
Quelques nuages à une hauteur de 2500 ft
Nuages épars à une hauteur de 20000 ft
Temporairement
du 26 à 14 UTC au 26 à 21 UTC
Vent 19 kt de nord-ouest avec des rafales jusqu'à 31 kt

TAF: EFHK 261134Z 2612/2712 27014KT 9999 FEW025 SCT200 TEMPO 2614/2621 31019G31KT

Observations et prévisions météorologiques de plus de 4000 aéroports (messages METAR et TAF).

Les stations disponibles sont représentées par des disques jaunes et rouges sur la carte.

Passer la souris dessus pour voir le nom de la station.

Cliquer dessus pour voir les observations et prévisions météorologiques.

Pour changer de carte: cliquez sur les boutons verts avec une croix noire pour zoomer, sur le bouton vert avec un tiret pour effectuer un zoom arrière, ou sur les flèches vertes pour les cartes adjacentes.


METAR-TAF: